Time;durP1;ratioP1;P1;durP2;ratioP2;P2;SDS_P1;SDS_P2;PMS_P1;PMS_P2;Temp;Humidity;BMP_temperature;BMP_pressure;BME280_temperature;BME280_humidity;BME280_pressure;Samples;Min_cycle;Max_cycle;Signal;HPM_P1;HPM_P2
2022/04/29 00:00:16;;;;;;;;;;;;;;;9.95;55.70;97894.19;30001;983;1810;-59
2022/04/29 00:00:49;;;;;;;;;;;;;;;9.92;55.68;97893.91;30001;977;1894;-58
2022/04/29 00:01:21;;;;;;;;;;;;;;;9.90;55.82;97896.87;30001;983;1881;-59
2022/04/29 00:01:56;;;;;;;;;;;;;;;9.88;55.93;97893.62;30001;957;1884;-59
2022/04/29 00:02:27;;;;;;;;;;;;;;;9.88;56.10;97892.81;30001;982;1876;-60
2022/04/29 00:02:57;;;;;;;;;;;;;;;9.87;56.30;97894.69;30001;982;1881;-60
2022/04/29 00:03:29;;;;;;;;;;;;;;;9.87;56.53;97900.13;30001;982;1881;-60
2022/04/29 00:04:02;;;;;;;;;;;;;;;9.86;56.54;97897.69;30001;982;1881;-59
2022/04/29 00:04:33;;;;;;;;;;;;;;;9.84;56.60;97891.69;30001;983;1880;-60
2022/04/29 00:05:04;;;;;;;;;;;;;;;9.81;56.79;97895.75;30001;983;1880;-59
2022/04/29 00:05:36;;;;;;;;;;;;;;;9.80;56.67;97896.00;30001;983;1880;-60
2022/04/29 00:06:07;;;;;;;;;;;;;;;9.77;56.72;97896.53;30001;983;1858;-59
2022/04/29 00:06:39;;;;;;;;;;;;;;;9.74;56.79;97898.69;30001;983;1876;-59
2022/04/29 00:07:10;;;;;;;;;;;;;;;9.72;57.02;97902.75;30001;983;1880;-58
2022/04/29 00:07:41;;;;;;;;;;;;;;;9.69;57.08;97890.56;30001;983;1859;-60
2022/04/29 00:08:13;;;;;;;;;;;;;;;9.68;57.42;97898.94;30001;983;1876;-60
2022/04/29 00:08:45;;;;;;;;;;;;;;;9.67;57.74;97897.31;30001;983;1881;-61
2022/04/29 00:09:16;;;;;;;;;;;;;;;9.65;57.46;97904.91;30001;982;1881;-60
2022/04/29 00:09:47;;;;;;;;;;;;;;;9.61;57.31;97896.47;30001;982;1881;-59
2022/04/29 00:10:19;;;;;;;;;;;;;;;9.59;57.23;97897.81;30001;982;1881;-60
2022/04/29 00:10:49;;;;;;;;;;;;;;;9.57;57.35;97897.25;30001;982;1795;-59
2022/04/29 00:11:21;;;;;;;;;;;;;;;9.57;57.30;97902.66;30001;982;1859;-59
2022/04/29 00:11:53;;;;;;;;;;;;;;;9.54;57.25;97895.06;30001;983;1876;-59
2022/04/29 00:12:27;;;;;;;;;;;;;;;9.53;57.55;97893.44;30001;983;1880;-59
2022/04/29 00:12:59;;;;;;;;;;;;;;;9.51;57.75;97890.97;30001;983;1880;-60
2022/04/29 00:13:30;;;;;;;;;;;;;;;9.49;57.59;97890.41;30001;983;1880;-59
2022/04/29 00:14:01;;;;;;;;;;;;;;;9.49;57.75;97889.59;30001;983;1880;-61
2022/04/29 00:14:32;;;;;;;;;;;;;;;9.48;57.56;97887.97;30001;983;1880;-59
2022/04/29 00:15:03;;;;;;;;;;;;;;;9.48;57.78;97887.97;30001;983;1880;-59
2022/04/29 00:15:34;;;;;;;;;;;;;;;9.46;57.69;97890.13;30001;983;1880;-60
2022/04/29 00:16:06;;;;;;;;;;;;;;;9.45;57.88;97881.19;30001;983;1881;-59
2022/04/29 00:16:38;;;;;;;;;;;;;;;9.45;57.76;97885.78;30001;983;1859;-60
2022/04/29 00:17:10;;;;;;;;;;;;;;;9.45;57.87;97886.59;30001;982;1876;-60
2022/04/29 00:17:48;;;;;;;;;;;;;;;9.45;57.66;97888.50;30001;982;1881;-59
2022/04/29 00:18:20;;;;;;;;;;;;;;;9.46;57.65;97884.72;30001;982;1859;-59
2022/04/29 00:18:52;;;;;;;;;;;;;;;9.45;57.67;97893.91;30001;982;1855;-61
2022/04/29 00:19:24;;;;;;;;;;;;;;;9.44;57.90;97882.25;30001;983;1880;-60
2022/04/29 00:19:56;;;;;;;;;;;;;;;9.45;57.65;97883.06;30001;984;1876;-59
2022/04/29 00:20:27;;;;;;;;;;;;;;;9.45;57.64;97885.78;30001;983;1880;-60
2022/04/29 00:20:58;;;;;;;;;;;;;;;9.47;57.63;97880.91;30001;983;1858;-59
2022/04/29 00:21:30;;;;;;;;;;;;;;;9.48;57.50;97887.97;30001;983;1876;-60
2022/04/29 00:22:03;;;;;;;;;;;;;;;9.48;57.48;97887.97;30001;983;1880;-59
2022/04/29 00:22:36;;;;;;;;;;;;;;;9.49;57.44;97884.19;30001;983;1880;-59
2022/04/29 00:23:08;;;;;;;;;;;;;;;9.50;57.49;97885.81;30001;983;1813;-61
2022/04/29 00:23:40;;;;;;;;;;;;;;;9.48;57.40;97877.13;30001;983;1881;-61
2022/04/29 00:24:12;;;;;;;;;;;;;;;9.48;57.31;97879.84;30001;983;1881;-59
2022/04/29 00:24:44;;;;;;;;;;;;;;;9.47;57.27;97880.91;30001;982;1881;-59
2022/04/29 00:25:15;;;;;;;;;;;;;;;9.48;57.45;97882.56;30001;982;1881;-60
2022/04/29 00:25:46;;;;;;;;;;;;;;;9.48;57.64;97877.94;30001;982;1859;-59
2022/04/29 00:26:18;;;;;;;;;;;;;;;9.48;57.76;97871.72;30001;982;1855;-59
2022/04/29 00:26:49;;;;;;;;;;;;;;;9.49;57.80;97876.06;30001;983;1880;-59
2022/04/29 00:27:21;;;;;;;;;;;;;;;9.50;57.45;97880.41;30001;983;1880;-61
2022/04/29 00:27:52;;;;;;;;;;;;;;;9.49;57.58;97873.34;30001;983;1880;-60
2022/04/29 00:28:24;;;;;;;;;;;;;;;9.49;57.63;97878.78;30001;983;1880;-60
2022/04/29 00:28:59;;;;;;;;;;;;;;;9.48;57.33;97882.56;30001;983;1880;-60
2022/04/29 00:29:31;;;;;;;;;;;;;;;9.46;57.62;97873.87;30001;983;1880;-59
2022/04/29 00:30:03;;;;;;;;;;;;;;;9.45;57.75;97874.94;30001;983;1880;-59
2022/04/29 00:30:35;;;;;;;;;;;;;;;9.44;58.12;97876.03;30001;983;1881;-60
2022/04/29 00:31:06;;;;;;;;;;;;;;;9.43;58.03;97871.69;30001;983;1881;-59
2022/04/29 00:31:38;;;;;;;;;;;;;;;9.40;57.98;97871.12;30001;983;1859;-60
2022/04/29 00:32:09;;;;;;;;;;;;;;;9.40;57.94;97879.25;30001;982;1876;-61
2022/04/29 00:32:41;;;;;;;;;;;;;;;9.38;58.09;97878.69;30001;982;1881;-60
2022/04/29 00:33:12;;;;;;;;;;;;;;;9.38;58.08;97875.97;30001;982;1881;-59
2022/04/29 00:33:43;;;;;;;;;;;;;;;9.39;58.15;97879.50;30001;975;1888;-60
2022/04/29 00:34:15;;;;;;;;;;;;;;;9.37;58.04;97876.25;30001;982;1881;-60
2022/04/29 00:34:46;;;;;;;;;;;;;;;9.38;57.62;97875.97;30001;983;1880;-59
2022/04/29 00:35:17;;;;;;;;;;;;;;;9.36;57.91;97878.12;30001;983;1880;-60
2022/04/29 00:35:48;;;;;;;;;;;;;;;9.36;57.76;97883.56;30001;983;1880;-59
2022/04/29 00:36:19;;;;;;;;;;;;;;;9.36;57.99;97880.03;30001;983;1880;-59
2022/04/29 00:36:51;;;;;;;;;;;;;;;9.35;58.14;97873.81;30001;986;1858;-59
2022/04/29 00:37:22;;;;;;;;;;;;;;;9.36;57.98;97880.84;30001;983;1854;-60
2022/04/29 00:37:55;;;;;;;;;;;;;;;9.35;57.90;97875.72;30001;983;1881;-60
2022/04/29 00:38:26;;;;;;;;;;;;;;;9.36;57.97;97870.00;30001;983;1787;-59
2022/04/29 00:38:58;;;;;;;;;;;;;;;9.37;58.13;97877.06;30001;982;1859;-59
2022/04/29 00:39:29;;;;;;;;;;;;;;;9.35;57.91;97868.41;30001;982;1876;-59
2022/04/29 00:40:00;;;;;;;;;;;;;;;9.35;57.86;97870.31;30001;982;1881;-59
2022/04/29 00:40:32;;;;;;;;;;;;;;;9.34;57.86;97866.78;30001;982;1881;-60
2022/04/29 00:41:03;;;;;;;;;;;;;;;9.34;57.94;97874.09;30001;982;1881;-60
2022/04/29 00:41:34;;;;;;;;;;;;;;;9.33;57.91;97858.91;30001;982;1881;-59
2022/04/29 00:42:23;;;;;;;;;;;;;;;9.33;57.87;97859.72;30001;983;1880;-64
2022/04/29 00:42:54;;;;;;;;;;;;;;;9.33;58.04;97861.63;30001;983;1880;-62
2022/04/29 00:43:25;;;;;;;;;;;;;;;9.33;57.94;97854.31;30001;983;1880;-59
2022/04/29 00:44:06;;;;;;;;;;;;;;;9.34;57.73;97866.78;30001;983;1858;-60
2022/04/29 00:44:38;;;;;;;;;;;;;;;9.35;57.74;97857.56;30001;983;1876;-59
2022/04/29 00:45:10;;;;;;;;;;;;;;;9.35;57.73;97863.00;30001;983;1880;-60
2022/04/29 00:45:41;;;;;;;;;;;;;;;9.36;57.56;97856.47;30001;983;1859;-59
2022/04/29 00:46:12;;;;;;;;;;;;;;;9.34;57.50;97853.22;30001;982;1876;-59
2022/04/29 00:46:44;;;;;;;;;;;;;;;9.34;57.59;97855.94;30001;982;1881;-61
2022/04/29 00:47:17;;;;;;;;;;;;;;;9.33;57.56;97857.03;30001;982;1881;-60
2022/04/29 00:47:48;;;;;;;;;;;;;;;9.33;57.67;97851.59;30001;982;1881;-59
2022/04/29 00:48:19;;;;;;;;;;;;;;;9.33;57.68;97857.03;30001;982;1881;-61
2022/04/29 00:48:50;;;;;;;;;;;;;;;9.31;57.60;97845.63;30001;982;1881;-60
2022/04/29 00:49:21;;;;;;;;;;;;;;;9.31;57.86;97856.47;30001;982;1881;-59
2022/04/29 00:49:52;;;;;;;;;;;;;;;9.31;57.85;97851.03;30001;983;1858;-60
2022/04/29 00:50:24;;;;;;;;;;;;;;;9.31;58.02;97845.63;30001;983;1850;-60
2022/04/29 00:50:55;;;;;;;;;;;;;;;9.31;57.68;97840.22;30001;983;1876;-64
2022/04/29 00:51:26;;;;;;;;;;;;;;;9.34;57.66;97849.72;30001;983;1854;-59
2022/04/29 00:51:57;;;;;;;;;;;;;;;9.36;57.56;97848.34;30001;983;1872;-59
2022/04/29 00:52:30;;;;;;;;;;;;;;;9.37;57.49;97849.97;30001;983;1876;-59
2022/04/29 00:53:01;;;;;;;;;;;;;;;9.39;57.40;97845.13;30001;983;1876;-60
2022/04/29 00:53:33;;;;;;;;;;;;;;;9.40;57.47;97857.59;30001;983;1876;-59
2022/04/29 00:54:06;;;;;;;;;;;;;;;9.38;57.29;97846.19;30001;982;1876;-59
2022/04/29 00:54:38;;;;;;;;;;;;;;;9.40;57.40;97848.62;30001;982;1876;-59
2022/04/29 00:55:09;;;;;;;;;;;;;;;9.39;57.51;97847.81;30001;982;1876;-59
2022/04/29 00:55:44;;;;;;;;;;;;;;;9.39;57.56;97849.72;30001;982;1877;-60
2022/04/29 00:56:17;;;;;;;;;;;;;;;9.38;57.50;97848.91;30001;982;1855;-59
2022/04/29 00:56:50;;;;;;;;;;;;;;;9.37;57.55;97852.69;30001;982;1872;-60
2022/04/29 00:57:25;;;;;;;;;;;;;;;9.36;57.58;97848.34;30001;983;1876;-59
2022/04/29 00:58:02;;;;;;;;;;;;;;;9.37;57.86;97844.56;30001;983;1876;-64
2022/04/29 00:58:39;;;;;;;;;;;;;;;9.37;57.78;97852.69;30001;983;1876;-59
2022/04/29 00:59:32;;;;;;;;;;;;;;;9.35;57.59;97852.16;30001;983;1854;-59
2022/04/29 01:00:05;;;;;;;;;;;;;;;9.36;57.57;97851.06;30001;983;1867;-59
2022/04/29 01:00:36;;;;;;;;;;;;;;;9.36;57.76;97858.34;30001;983;1876;-59
2022/04/29 01:01:07;;;;;;;;;;;;;;;9.35;57.88;97852.16;30001;983;1876;-60
2022/04/29 01:01:39;;;;;;;;;;;;;;;9.35;57.73;97849.44;30001;982;1854;-60
2022/04/29 01:02:11;;;;;;;;;;;;;;;9.35;57.90;97846.75;30001;982;1850;-60
2022/04/29 01:02:43;;;;;;;;;;;;;;;9.36;57.87;97853.75;30001;982;1855;-59
2022/04/29 01:03:15;;;;;;;;;;;;;;;9.38;57.39;97846.19;30001;982;1872;-61
2022/04/29 01:03:46;;;;;;;;;;;;;;;9.38;57.51;97854.31;30001;982;1877;-59
2022/04/29 01:04:21;;;;;;;;;;;;;;;9.38;57.73;97848.09;30001;982;1877;-59
2022/04/29 01:04:55;;;;;;;;;;;;;;;9.37;57.30;97844.56;30001;983;1876;-59
2022/04/29 01:05:26;;;;;;;;;;;;;;;9.35;57.58;97849.44;30001;983;1854;-58
2022/04/29 01:05:57;;;;;;;;;;;;;;;9.35;57.30;97851.34;30001;983;1871;-58
2022/04/29 01:06:31;;;;;;;;;;;;;;;9.34;57.18;97849.72;30001;983;1876;-59
2022/04/29 01:07:03;;;;;;;;;;;;;;;9.33;57.39;97848.91;30001;983;1746;-59
2022/04/29 01:07:34;;;;;;;;;;;;;;;9.33;56.96;97842.66;30001;983;1872;-61
2022/04/29 01:08:06;;;;;;;;;;;;;;;9.33;56.86;97846.19;30001;983;1854;-60
2022/04/29 01:08:37;;;;;;;;;;;;;;;9.33;57.04;97843.47;30001;983;1872;-60
2022/04/29 01:09:07;;;;;;;;;;;;;;;9.33;56.87;97848.91;30001;982;1876;-60
2022/04/29 01:09:38;;;;;;;;;;;;;;;9.33;56.93;97848.91;30001;982;1876;-59
2022/04/29 01:10:12;;;;;;;;;;;;;;;9.33;57.10;97840.78;30001;982;1876;-60
2022/04/29 01:10:45;;;;;;;;;;;;;;;9.34;57.04;97842.41;30001;982;1877;-60
2022/04/29 01:11:19;;;;;;;;;;;;;;;9.37;56.84;97847.25;30001;983;1876;-59
2022/04/29 01:11:51;;;;;;;;;;;;;;;9.38;57.04;97840.78;30001;983;1876;-60
2022/04/29 01:12:26;;;;;;;;;;;;;;;9.39;56.68;97842.41;30001;983;1876;-59
2022/04/29 01:12:58;;;;;;;;;;;;;;;9.39;56.93;97836.16;30001;983;1876;-59
2022/04/29 01:13:31;;;;;;;;;;;;;;;9.40;56.99;97843.22;30001;983;1854;-59
2022/04/29 01:14:02;;;;;;;;;;;;;;;9.40;56.49;97840.50;30001;983;1872;-59
2022/04/29 01:14:34;;;;;;;;;;;;;;;9.39;56.76;97847.81;30001;962;1897;-59
2022/04/29 01:15:07;;;;;;;;;;;;;;;9.39;56.93;97839.69;30001;983;1876;-59
2022/04/29 01:15:38;;;;;;;;;;;;;;;9.39;56.79;97836.16;30001;982;1854;-59
2022/04/29 01:16:09;;;;;;;;;;;;;;;9.38;56.87;97829.13;30001;982;1872;-59
2022/04/29 01:16:41;;;;;;;;;;;;;;;9.37;56.71;97828.31;30001;982;1876;-59
2022/04/29 01:17:12;;;;;;;;;;;;;;;9.35;56.81;97830.50;30001;982;1877;-60
2022/04/29 01:17:44;;;;;;;;;;;;;;;9.34;56.98;97826.16;30001;982;1877;-60
2022/04/29 01:18:17;;;;;;;;;;;;;;;9.34;56.94;97828.84;30001;982;1855;-60
2022/04/29 01:18:53;;;;;;;;;;;;;;;9.33;56.73;97829.94;30001;983;1871;-59
2022/04/29 01:19:25;;;;;;;;;;;;;;;9.33;56.98;97826.41;30001;983;1876;-60
2022/04/29 01:20:00;;;;;;;;;;;;;;;9.32;56.89;97825.59;30001;983;1876;-59
2022/04/29 01:20:31;;;;;;;;;;;;;;;9.32;57.10;97825.59;30001;983;1854;-60
2022/04/29 01:21:04;;;;;;;;;;;;;;;9.31;57.11;97828.56;30001;983;1872;-60
2022/04/29 01:21:35;;;;;;;;;;;;;;;9.31;57.21;97823.16;30001;983;1876;-66
2022/04/29 01:22:07;;;;;;;;;;;;;;;9.29;57.09;97831.53;30001;983;1854;-59
2022/04/29 01:22:38;;;;;;;;;;;;;;;9.29;57.06;97825.31;30001;983;1872;-59
2022/04/29 01:23:12;;;;;;;;;;;;;;;9.28;57.19;97827.19;30001;982;1876;-60
2022/04/29 01:23:43;;;;;;;;;;;;;;;9.27;57.13;97828.28;30001;982;1876;-60
2022/04/29 01:24:14;;;;;;;;;;;;;;;9.26;57.06;97825.81;30001;982;1876;-60
2022/04/29 01:24:47;;;;;;;;;;;;;;;9.24;57.35;97823.38;30001;982;1877;-59
2022/04/29 01:25:17;;;;;;;;;;;;;;;9.23;57.35;97820.91;30001;982;1877;-59
2022/04/29 01:25:48;;;;;;;;;;;;;;;9.21;57.47;97829.31;30001;983;1876;-59
2022/04/29 01:26:19;;;;;;;;;;;;;;;9.19;57.57;97825.22;30001;983;1876;-59
2022/04/29 01:26:50;;;;;;;;;;;;;;;9.18;57.60;97829.81;30001;983;1876;-60
2022/04/29 01:27:20;;;;;;;;;;;;;;;9.19;57.66;97828.75;30001;983;1854;-60
2022/04/29 01:27:51;;;;;;;;;;;;;;;9.18;57.82;97824.41;30001;983;1871;-60
2022/04/29 01:28:24;;;;;;;;;;;;;;;9.17;58.01;97825.47;30001;983;1876;-59
2022/04/29 01:28:56;;;;;;;;;;;;;;;9.15;57.95;97830.34;30001;983;1876;-60
2022/04/29 01:29:28;;;;;;;;;;;;;;;9.14;57.97;97823.28;30001;983;1876;-59
2022/04/29 01:30:03;;;;;;;;;;;;;;;9.15;58.25;97829.53;30001;983;1876;-60
2022/04/29 01:30:39;;;;;;;;;;;;;;;9.14;57.89;97823.28;30001;982;1876;-58
2022/04/29 01:31:11;;;;;;;;;;;;;;;9.13;58.03;97818.97;30001;982;1854;-58
2022/04/29 01:31:43;;;;;;;;;;;;;;;9.13;57.92;97815.44;30001;982;1872;-60
2022/04/29 01:32:14;;;;;;;;;;;;;;;9.12;57.87;97820.03;30001;982;1877;-59
2022/04/29 01:32:46;;;;;;;;;;;;;;;9.11;57.91;97820.28;30001;982;1877;-58
2022/04/29 01:33:21;;;;;;;;;;;;;;;9.10;57.59;97816.78;30001;983;1876;-59
2022/04/29 01:33:51;;;;;;;;;;;;;;;9.09;57.68;97820.56;30001;983;1854;-60
2022/04/29 01:34:23;;;;;;;;;;;;;;;9.10;57.86;97815.94;30001;983;1849;-60
2022/04/29 01:34:54;;;;;;;;;;;;;;;9.10;58.01;97818.66;30001;983;1876;-59
2022/04/29 01:35:25;;;;;;;;;;;;;;;9.10;57.85;97816.78;30001;983;1774;-60
2022/04/29 01:35:56;;;;;;;;;;;;;;;9.09;57.72;97809.72;30001;983;1876;-60
2022/04/29 01:36:27;;;;;;;;;;;;;;;9.09;57.65;97815.13;30001;983;1876;-59
2022/04/29 01:36:58;;;;;;;;;;;;;;;9.07;57.79;97815.41;30001;983;1876;-59
2022/04/29 01:37:29;;;;;;;;;;;;;;;9.07;57.92;97811.88;30001;983;1876;-60
2022/04/29 01:38:00;;;;;;;;;;;;;;;9.08;58.02;97808.09;30001;983;1876;-60
2022/04/29 01:38:31;;;;;;;;;;;;;;;9.06;57.99;97807.53;30001;982;1876;-59
2022/04/29 01:39:02;;;;;;;;;;;;;;;9.05;57.98;97809.44;30001;982;1855;-59
2022/04/29 01:39:33;;;;;;;;;;;;;;;9.05;57.65;97811.31;30001;982;1872;-64
2022/04/29 01:40:05;;;;;;;;;;;;;;;9.04;58.05;97817.81;30001;982;1877;-59
2022/04/29 01:40:36;;;;;;;;;;;;;;;9.02;57.89;97809.94;30001;983;1876;-65
2022/04/29 01:41:07;;;;;;;;;;;;;;;9.02;58.15;97814.53;30001;983;1876;-60
2022/04/29 01:41:37;;;;;;;;;;;;;;;9.01;58.06;97810.19;30001;983;1876;-59
2022/04/29 01:42:08;;;;;;;;;;;;;;;9.01;58.49;97823.75;30001;983;1777;-60
2022/04/29 01:42:41;;;;;;;;;;;;;;;9.00;58.17;97819.44;30001;983;1876;-65
2022/04/29 01:43:11;;;;;;;;;;;;;;;8.99;58.31;97817.78;30001;983;1876;-59
2022/04/29 01:43:42;;;;;;;;;;;;;;;8.97;58.28;97818.06;30001;983;1876;-65
2022/04/29 01:44:13;;;;;;;;;;;;;;;8.97;58.31;97822.66;30001;983;1854;-61
2022/04/29 01:44:45;;;;;;;;;;;;;;;8.94;58.40;97818.56;30001;983;1872;-59
2022/04/29 01:45:16;;;;;;;;;;;;;;;8.93;58.46;97818.81;30001;983;1876;-61
2022/04/29 01:45:47;;;;;;;;;;;;;;;8.93;58.46;97813.41;30001;982;1876;-59
2022/04/29 01:46:18;;;;;;;;;;;;;;;8.93;58.49;97821.53;30001;982;1876;-59
2022/04/29 01:46:49;;;;;;;;;;;;;;;8.91;58.48;97813.66;30001;982;1876;-60
2022/04/29 01:47:20;;;;;;;;;;;;;;;8.92;58.78;97819.91;30001;982;1877;-59
2022/04/29 01:47:51;;;;;;;;;;;;;;;8.91;58.58;97826.38;30001;982;1876;-60
2022/04/29 01:48:21;;;;;;;;;;;;;;;8.91;58.64;97826.38;30001;983;1876;-61
2022/04/29 01:48:53;;;;;;;;;;;;;;;8.90;58.57;97822.06;30001;983;1854;-59
2022/04/29 01:49:23;;;;;;;;;;;;;;;8.89;58.49;97828.53;30001;983;1849;-59
2022/04/29 01:49:54;;;;;;;;;;;;;;;8.90;58.35;97822.06;30001;983;1876;-60
2022/04/29 01:50:26;;;;;;;;;;;;;;;8.90;58.08;97822.06;30001;983;1876;-59
2022/04/29 01:50:57;;;;;;;;;;;;;;;8.90;57.85;97816.62;30001;983;1876;-59
2022/04/29 01:51:27;;;;;;;;;;;;;;;8.89;57.94;97821.25;30001;983;1876;-59
2022/04/29 01:51:59;;;;;;;;;;;;;;;8.88;58.12;97818.78;30001;983;1876;-61
2022/04/29 01:52:31;;;;;;;;;;;;;;;8.89;58.15;97821.25;30001;983;1876;-59
2022/04/29 01:53:02;;;;;;;;;;;;;;;8.91;57.91;97823.69;30001;983;1876;-59
2022/04/29 01:53:33;;;;;;;;;;;;;;;8.92;57.93;97822.63;30001;982;1854;-59
2022/04/29 01:54:10;;;;;;;;;;;;;;;8.92;58.11;97825.31;30001;982;1872;-59
2022/04/29 01:54:42;;;;;;;;;;;;;;;8.94;57.64;97823.97;30001;982;1855;-60
2022/04/29 01:55:13;;;;;;;;;;;;;;;8.96;57.88;97826.44;30001;982;1872;-60
2022/04/29 01:55:44;;;;;;;;;;;;;;;8.96;58.03;97823.72;30001;983;1876;-60
2022/04/29 01:56:14;;;;;;;;;;;;;;;8.97;57.87;97819.94;30001;983;1876;-59
2022/04/29 01:56:47;;;;;;;;;;;;;;;8.98;57.68;97818.88;30001;983;1876;-59
2022/04/29 01:57:18;;;;;;;;;;;;;;;8.97;57.76;97819.94;30001;983;1876;-64
2022/04/29 01:57:50;;;;;;;;;;;;;;;8.97;57.86;97828.87;30001;983;1876;-59
2022/04/29 01:58:21;;;;;;;;;;;;;;;8.96;57.95;97826.44;30001;983;1876;-66
2022/04/29 01:58:55;;;;;;;;;;;;;;;8.97;57.98;97822.66;30001;983;1854;-60
2022/04/29 01:59:30;;;;;;;;;;;;;;;8.96;58.11;97827.25;30001;983;1872;-65
2022/04/29 02:00:01;;;;;;;;;;;;;;;8.96;58.07;97826.44;30001;982;1876;-65
2022/04/29 02:00:32;;;;;;;;;;;;;;;8.93;57.85;97816.94;30001;982;1877;-59
2022/04/29 02:01:03;;;;;;;;;;;;;;;8.92;58.34;97828.03;30001;982;1876;-65
2022/04/29 02:01:34;;;;;;;;;;;;;;;8.94;58.26;97820.47;30001;982;1877;-59
2022/04/29 02:02:06;;;;;;;;;;;;;;;8.92;58.00;97819.91;30001;982;1855;-59
2022/04/29 02:02:37;;;;;;;;;;;;;;;8.91;57.87;97823.69;30001;982;1872;-65
2022/04/29 02:03:08;;;;;;;;;;;;;;;8.90;58.09;97822.88;30001;982;1877;-61
2022/04/29 02:03:38;;;;;;;;;;;;;;;8.89;58.18;97820.41;30001;983;1876;-64
2022/04/29 02:04:09;;;;;;;;;;;;;;;8.89;58.02;97823.13;30001;983;1876;-59
2022/04/29 02:04:41;;;;;;;;;;;;;;;8.87;58.38;97822.56;30001;983;1854;-65
2022/04/29 02:05:11;;;;;;;;;;;;;;;8.87;58.22;97827.97;30001;983;1872;-59
2022/04/29 02:05:44;;;;;;;;;;;;;;;8.86;58.18;97821.75;30001;983;1876;-67
2022/04/29 02:06:15;;;;;;;;;;;;;;;8.86;58.43;97818.22;30001;983;1876;-65
2022/04/29 02:06:49;;;;;;;;;;;;;;;8.85;58.37;97825.53;30001;983;1876;-66
2022/04/29 02:07:20;;;;;;;;;;;;;;;8.85;58.62;97822.81;30001;983;1876;-60
2022/04/29 02:07:50;;;;;;;;;;;;;;;8.84;58.43;97823.91;30001;982;1876;-66
2022/04/29 02:08:21;;;;;;;;;;;;;;;8.84;58.77;97823.09;30001;982;1876;-66
2022/04/29 02:08:53;;;;;;;;;;;;;;;8.83;58.42;97826.84;30001;982;1876;-65
2022/04/29 02:09:24;;;;;;;;;;;;;;;8.83;58.50;97816.03;30001;982;1855;-59
2022/04/29 02:09:56;;;;;;;;;;;;;;;8.83;58.47;97822.25;30001;968;1895;-65
2022/04/29 02:10:27;;;;;;;;;;;;;;;8.83;58.86;97821.44;30001;982;1877;-60
2022/04/29 02:10:59;;;;;;;;;;;;;;;8.81;58.84;97818.19;30001;983;1876;-65
2022/04/29 02:11:32;;;;;;;;;;;;;;;8.80;58.81;97821.97;30001;983;1876;-65
2022/04/29 02:12:06;;;;;;;;;;;;;;;8.78;58.94;97814.09;30001;983;1876;-58
2022/04/29 02:12:37;;;;;;;;;;;;;;;8.75;58.68;97814.63;30001;983;1854;-67
2022/04/29 02:13:08;;;;;;;;;;;;;;;8.74;58.81;97819.22;30001;985;1872;-60
2022/04/29 02:13:39;;;;;;;;;;;;;;;8.76;58.94;97815.44;30001;983;1854;-66
2022/04/29 02:14:10;;;;;;;;;;;;;;;8.77;58.76;97814.34;30001;983;1872;-59
2022/04/29 02:14:42;;;;;;;;;;;;;;;8.77;59.00;97822.47;30001;983;1876;-60
2022/04/29 02:15:13;;;;;;;;;;;;;;;8.79;58.90;97820.34;30001;982;1855;-67
2022/04/29 02:15:45;;;;;;;;;;;;;;;8.78;58.69;97818.69;30001;982;1872;-61
2022/04/29 02:16:16;;;;;;;;;;;;;;;8.77;58.68;97817.88;30001;982;1876;-60
2022/04/29 02:16:47;;;;;;;;;;;;;;;8.77;58.90;97811.66;30001;982;1877;-59
2022/04/29 02:17:17;;;;;;;;;;;;;;;8.76;58.73;97818.12;30001;982;1877;-66
2022/04/29 02:17:48;;;;;;;;;;;;;;;8.74;58.91;97813.81;30001;982;1855;-64
2022/04/29 02:18:19;;;;;;;;;;;;;;;8.73;58.65;97822.19;30001;982;1872;-66
2022/04/29 02:18:50;;;;;;;;;;;;;;;8.72;58.80;97815.94;30001;983;1840;-60
2022/04/29 02:19:24;;;;;;;;;;;;;;;8.72;58.81;97815.13;30001;983;1876;-60
2022/04/29 02:19:55;;;;;;;;;;;;;;;8.71;59.08;97816.22;30001;983;1876;-64
2022/04/29 02:20:26;;;;;;;;;;;;;;;8.69;58.95;97813.75;30001;986;1876;-59
2022/04/29 02:20:57;;;;;;;;;;;;;;;8.69;59.19;97813.75;30001;983;1876;-60
2022/04/29 02:21:28;;;;;;;;;;;;;;;8.66;59.33;97814.28;30001;983;1876;-65
2022/04/29 02:22:01;;;;;;;;;;;;;;;8.65;59.56;97815.38;30001;983;1876;-60
2022/04/29 02:22:32;;;;;;;;;;;;;;;8.63;59.25;97817.53;30001;982;1814;-60
2022/04/29 02:23:02;;;;;;;;;;;;;;;8.63;59.70;97817.53;30001;982;1854;-65
2022/04/29 02:23:33;;;;;;;;;;;;;;;8.61;59.81;97810.72;30001;982;1872;-66
2022/04/29 02:24:05;;;;;;;;;;;;;;;8.58;59.52;97814.75;30001;982;1876;-60
2022/04/29 02:24:36;;;;;;;;;;;;;;;8.58;59.65;97812.06;30001;982;1877;-66
2022/04/29 02:25:08;;;;;;;;;;;;;;;8.58;59.69;97813.94;30001;982;1877;-65
2022/04/29 02:25:42;;;;;;;;;;;;;;;8.56;59.62;97808.78;30001;982;1877;-66
2022/04/29 02:26:13;;;;;;;;;;;;;;;8.55;59.88;97809.88;30001;983;1854;-60
2022/04/29 02:26:46;;;;;;;;;;;;;;;8.54;59.91;97813.66;30001;983;1871;-67
2022/04/29 02:27:17;;;;;;;;;;;;;;;8.54;59.69;97812.81;30001;983;1854;-64
2022/04/29 02:27:48;;;;;;;;;;;;;;;8.51;59.73;97807.94;30001;970;1895;-66
2022/04/29 02:28:19;;;;;;;;;;;;;;;8.50;59.99;97807.13;30001;983;1876;-60
2022/04/29 02:28:50;;;;;;;;;;;;;;;8.50;59.76;97811.72;30001;983;1876;-65
2022/04/29 02:29:21;;;;;;;;;;;;;;;8.48;59.89;97809.25;30001;983;1876;-59
2022/04/29 02:29:52;;;;;;;;;;;;;;;8.47;59.79;97813.03;30001;983;1876;-66
2022/04/29 02:30:23;;;;;;;;;;;;;;;8.46;60.09;97811.41;30001;982;1876;-67
2022/04/29 02:30:55;;;;;;;;;;;;;;;8.46;59.89;97814.09;30001;982;1855;-66
2022/04/29 02:31:26;;;;;;;;;;;;;;;8.44;60.07;97808.13;30001;982;1872;-60
2022/04/29 02:31:57;;;;;;;;;;;;;;;8.45;59.88;97803.53;30001;982;1877;-59
2022/04/29 02:32:28;;;;;;;;;;;;;;;8.43;60.10;97806.50;30001;982;1877;-67
2022/04/29 02:32:59;;;;;;;;;;;;;;;8.43;59.99;97806.50;30001;983;1854;-65
2022/04/29 02:33:31;;;;;;;;;;;;;;;8.43;60.00;97808.38;30001;983;1849;-66
2022/04/29 02:34:02;;;;;;;;;;;;;;;8.44;59.94;97813.53;30001;983;1876;-65
2022/04/29 02:34:36;;;;;;;;;;;;;;;8.43;59.82;97802.97;30001;983;1876;-59
2022/04/29 02:35:08;;;;;;;;;;;;;;;8.45;59.88;97809.75;30001;983;1876;-60
2022/04/29 02:35:39;;;;;;;;;;;;;;;8.45;59.85;97803.53;30001;983;1854;-67
2022/04/29 02:36:10;;;;;;;;;;;;;;;8.44;59.68;97799.19;30001;983;1872;-64
2022/04/29 02:36:41;;;;;;;;;;;;;;;8.43;59.73;97800.28;30001;983;1876;-60
2022/04/29 02:37:12;;;;;;;;;;;;;;;8.42;59.73;97804.06;30001;983;1876;-60
2022/04/29 02:37:42;;;;;;;;;;;;;;;8.41;59.86;97795.12;30001;982;1876;-60
2022/04/29 02:38:13;;;;;;;;;;;;;;;8.41;59.94;97797.81;30001;982;1876;-65
2022/04/29 02:38:44;;;;;;;;;;;;;;;8.39;60.19;97795.38;30001;982;1855;-66
2022/04/29 02:39:15;;;;;;;;;;;;;;;8.40;60.30;97807.00;30001;982;1872;-65
2022/04/29 02:39:45;;;;;;;;;;;;;;;8.38;60.25;97804.56;30001;982;1877;-64
2022/04/29 02:40:16;;;;;;;;;;;;;;;8.37;60.45;97796.69;30001;983;1876;-60
2022/04/29 02:40:50;;;;;;;;;;;;;;;8.36;60.54;97797.78;30001;983;1876;-59
2022/04/29 02:41:22;;;;;;;;;;;;;;;8.37;60.55;97796.69;30001;983;1876;-65
2022/04/29 02:41:54;;;;;;;;;;;;;;;8.38;60.23;97803.75;30001;983;1876;-65
2022/04/29 02:42:27;;;;;;;;;;;;;;;8.38;60.10;97795.63;30001;983;1876;-66
2022/04/29 02:42:58;;;;;;;;;;;;;;;8.38;60.12;97792.94;30001;983;1854;-66
2022/04/29 02:43:29;;;;;;;;;;;;;;;8.38;60.08;97790.22;30001;983;1872;-67
2022/04/29 02:44:03;;;;;;;;;;;;;;;8.37;59.99;97792.13;30001;983;1854;-68
2022/04/29 02:44:33;;;;;;;;;;;;;;;8.37;59.57;97799.41;30001;983;1872;-65
2022/04/29 02:45:05;;;;;;;;;;;;;;;8.37;59.70;97789.41;30002;983;1876;-67
2022/04/29 02:45:37;;;;;;;;;;;;;;;8.38;59.45;97795.63;30002;982;1876;-64
2022/04/29 02:46:08;;;;;;;;;;;;;;;8.40;59.43;97790.78;30002;982;1876;-66
2022/04/29 02:47:06;;;;;;;;;;;;;;;8.41;59.53;97800.53;30002;986;1877;-68
2022/04/29 02:47:31;;;;;;;;;;;;;;;8.40;59.45;97791.59;30002;982;1877;-59
2022/04/29 02:48:04;;;;;;;;;;;;;;;8.43;59.34;97792.97;30002;983;1876;-66
2022/04/29 02:48:43;;;;;;;;;;;;;;;8.46;59.29;97789.75;30002;983;1854;-67
2022/04/29 02:49:14;;;;;;;;;;;;;;;8.47;59.20;97788.69;30002;983;1871;-66
2022/04/29 02:49:45;;;;;;;;;;;;;;;8.49;59.49;97789.25;30002;983;1876;-67
2022/04/29 02:50:16;;;;;;;;;;;;;;;8.49;59.19;97789.25;30002;983;1876;-59
2022/04/29 02:50:47;;;;;;;;;;;;;;;8.49;59.38;97783.03;30002;983;1876;-67
2022/04/29 02:51:17;;;;;;;;;;;;;;;8.49;59.30;97783.84;30002;983;1876;-58
2022/04/29 02:51:48;;;;;;;;;;;;;;;8.48;59.27;97787.62;30002;983;1876;-66
2022/04/29 02:52:22;;;;;;;;;;;;;;;8.48;59.26;97784.91;30002;963;1896;-60
2022/04/29 02:52:53;;;;;;;;;;;;;;;8.48;59.36;97787.62;30002;982;1876;-66